createdAt,value
2017-12-01T00:00:58.992Z,5.29
2017-12-01T00:03:32.964Z,5.43
2017-12-01T00:06:07.247Z,6.71
2017-12-01T00:08:38.779Z,9.00
2017-12-01T00:11:11.184Z,7.00
2017-12-01T00:13:42.766Z,7.00
2017-12-01T00:16:15.368Z,8.00
2017-12-01T00:18:46.741Z,7.00
2017-12-01T00:21:19.067Z,7.00
2017-12-01T00:23:50.916Z,6.00
2017-12-01T00:26:23.195Z,9.00
2017-12-01T00:28:55.439Z,8.00
2017-12-01T00:31:27.531Z,7.00
2017-12-01T00:33:58.994Z,9.67
2017-12-01T00:36:30.438Z,8.33
2017-12-01T00:39:02.141Z,9.00
2017-12-01T00:41:33.551Z,8.33
2017-12-01T00:44:05.601Z,9.00
2017-12-01T00:46:37.706Z,9.00
2017-12-01T00:49:09.142Z,9.67
2017-12-01T00:51:40.581Z,9.00
2017-12-01T00:54:12.283Z,7.00
2017-12-01T00:56:43.711Z,10.33
2017-12-01T00:59:16.151Z,7.00
2017-12-01T01:01:48.823Z,8.60
2017-12-01T01:04:20.593Z,9.00
2017-12-01T01:06:51.844Z,9.00
2017-12-01T01:09:23.929Z,6.33
2017-12-01T01:11:55.663Z,9.33
2017-12-01T01:14:27.098Z,9.00
2017-12-01T01:16:58.736Z,9.00
2017-12-01T01:19:31.062Z,7.00
2017-12-01T01:22:03.967Z,6.00
2017-12-01T01:24:35.671Z,7.00
2017-12-01T01:27:07.018Z,7.00
2017-12-01T01:29:38.489Z,7.00
2017-12-01T01:32:10.812Z,7.00
2017-12-01T01:34:43.446Z,7.00
2017-12-01T01:37:14.933Z,7.00
2017-12-01T01:39:46.643Z,7.67
2017-12-01T01:42:18.006Z,7.00
2017-12-01T01:44:49.441Z,7.00
2017-12-01T01:47:21.210Z,9.00
2017-12-01T01:49:53.932Z,7.67
2017-12-01T01:52:26.284Z,7.80
2017-12-01T01:54:58.884Z,8.50
2017-12-01T01:57:31.926Z,7.40
2017-12-01T02:00:05.668Z,6.67
2017-12-01T02:02:37.358Z,7.00
2017-12-01T02:05:08.923Z,7.00
2017-12-01T02:07:40.154Z,10.00
2017-12-01T02:10:11.609Z,9.00
2017-12-01T02:12:43.945Z,7.00
2017-12-01T02:15:16.446Z,7.00
2017-12-01T02:17:49.093Z,7.00
2017-12-01T02:20:21.704Z,9.00
2017-12-01T02:22:53.177Z,9.00
2017-12-01T02:25:25.001Z,6.67
2017-12-01T02:27:56.359Z,7.00
2017-12-01T02:30:28.933Z,7.00
2017-12-01T02:33:00.479Z,7.67
2017-12-01T02:35:33.574Z,9.00
2017-12-01T02:38:05.929Z,7.00
2017-12-01T02:40:38.106Z,7.00
2017-12-01T02:43:09.495Z,6.33
2017-12-01T02:45:42.245Z,9.00
2017-12-01T02:48:13.948Z,9.00
2017-12-01T02:50:45.679Z,9.00
2017-12-01T02:53:17.165Z,9.00
2017-12-01T02:55:48.983Z,8.33
2017-12-01T02:58:20.371Z,9.00
2017-12-01T03:00:51.742Z,9.00
2017-12-01T03:03:23.121Z,9.33
2017-12-01T03:05:54.593Z,7.67
2017-12-01T03:08:27.213Z,9.00
2017-12-01T03:10:58.820Z,7.67
2017-12-01T03:13:30.490Z,9.00
2017-12-01T03:16:02.986Z,9.67
2017-12-01T03:18:35.763Z,9.75
2017-12-01T03:21:08.589Z,9.00
2017-12-01T03:23:40.397Z,10.00
2017-12-01T03:26:12.130Z,8.33
2017-12-01T03:28:44.730Z,9.75
2017-12-01T03:31:16.907Z,8.33
2017-12-01T03:33:48.434Z,9.00
2017-12-01T03:36:20.255Z,8.33
2017-12-01T03:38:52.864Z,7.50
2017-12-01T03:41:24.661Z,9.00
2017-12-01T03:43:56.418Z,7.00
2017-12-01T03:46:28.340Z,9.00
2017-12-01T03:49:00.953Z,9.67
2017-12-01T03:51:35.060Z,9.75
2017-12-01T03:54:06.990Z,9.00
2017-12-01T03:56:38.396Z,8.33
2017-12-01T03:59:11.477Z,11.00
2017-12-01T04:01:43.638Z,8.33
2017-12-01T04:04:15.435Z,7.00
2017-12-01T04:06:47.598Z,9.00
2017-12-01T04:09:19.043Z,9.00
2017-12-01T04:11:50.538Z,9.00
2017-12-01T04:14:22.772Z,8.00
2017-12-01T04:16:54.588Z,9.00
2017-12-01T04:19:25.923Z,7.00
2017-12-01T04:21:57.401Z,7.67
2017-12-01T04:24:28.861Z,9.33
2017-12-01T04:27:00.298Z,8.33
2017-12-01T04:29:33.479Z,9.00
2017-12-01T04:32:06.088Z,9.33
2017-12-01T04:34:39.192Z,10.00
2017-12-01T04:37:11.566Z,9.40
2017-12-01T04:39:43.393Z,9.00
2017-12-01T04:42:14.765Z,9.67
2017-12-01T04:44:46.212Z,10.00
2017-12-01T04:47:18.051Z,9.00
2017-12-01T04:49:49.540Z,7.67
2017-12-01T04:52:21.006Z,10.00
2017-12-01T04:54:53.331Z,9.50
2017-12-01T04:57:25.617Z,9.00
2017-12-01T04:59:57.445Z,10.00
2017-12-01T05:02:29.119Z,10.00
2017-12-01T05:05:01.961Z,8.50
2017-12-01T05:07:33.397Z,10.00
2017-12-01T05:10:05.629Z,9.00
2017-12-01T05:12:37.369Z,8.00
2017-12-01T05:15:08.920Z,10.33
2017-12-01T05:17:40.856Z,10.00
2017-12-01T05:20:13.929Z,9.67
2017-12-01T05:22:45.396Z,8.33
2017-12-01T05:25:16.905Z,9.00
2017-12-01T05:27:48.728Z,10.67
2017-12-01T05:30:20.347Z,9.33
2017-12-01T05:32:51.619Z,10.00
2017-12-01T05:35:23.363Z,10.00
2017-12-01T05:37:54.666Z,10.00
2017-12-01T05:40:27.156Z,10.00
2017-12-01T05:42:58.866Z,10.00
2017-12-01T05:45:30.686Z,11.67
2017-12-01T05:48:02.692Z,11.33
2017-12-01T05:50:35.574Z,10.33
2017-12-01T05:53:07.924Z,10.00
2017-12-01T05:55:40.738Z,10.00
2017-12-01T05:58:12.605Z,13.00
2017-12-01T06:00:45.672Z,10.33
2017-12-01T06:03:17.825Z,13.67
2017-12-01T06:05:50.578Z,10.67
2017-12-01T06:08:22.729Z,10.00
2017-12-01T06:10:54.191Z,10.00
2017-12-01T06:13:26.841Z,10.00
2017-12-01T06:15:59.292Z,10.67
2017-12-01T06:18:32.771Z,13.67
2017-12-01T06:21:03.343Z,10.00
2017-12-01T06:23:35.535Z,10.00
2017-12-01T06:26:07.057Z,11.00
2017-12-01T06:28:38.568Z,10.00
2017-12-01T06:31:11.387Z,10.00
2017-12-01T06:33:43.327Z,10.00
2017-12-01T06:36:16.066Z,9.67
2017-12-01T06:38:48.657Z,10.00
2017-12-01T06:41:21.405Z,11.00
2017-12-01T06:43:54.092Z,10.00
2017-12-01T06:46:26.138Z,11.00
2017-12-01T06:48:59.126Z,11.67
2017-12-01T06:51:32.366Z,9.33
2017-12-01T06:54:03.876Z,12.33
2017-12-01T06:56:37.352Z,10.33
2017-12-01T06:59:11.445Z,9.67
2017-12-01T07:01:44.073Z,10.33
2017-12-01T07:04:16.723Z,10.67
2017-12-01T07:06:49.474Z,10.00
2017-12-01T07:09:20.006Z,11.00
2017-12-01T07:11:51.391Z,10.67
2017-12-01T07:14:23.174Z,10.00
2017-12-01T07:16:55.773Z,11.00
2017-12-01T07:19:27.839Z,11.00
2017-12-01T07:22:00.156Z,10.00
2017-12-01T07:24:31.886Z,11.33
2017-12-01T07:27:09.750Z,11.00
2017-12-01T07:29:40.564Z,9.00
2017-12-01T07:32:13.131Z,11.33
2017-12-01T07:34:43.700Z,11.00
2017-12-01T07:37:14.334Z,14.00
2017-12-01T07:39:45.271Z,12.33
2017-12-01T07:42:15.974Z,13.33
2017-12-01T07:44:46.710Z,11.67
2017-12-01T07:47:19.649Z,12.33
2017-12-01T07:49:50.625Z,13.00
2017-12-01T07:52:22.185Z,10.67
2017-12-01T07:54:54.679Z,11.67
2017-12-01T07:57:25.400Z,12.67
2017-12-01T07:59:56.430Z,13.00
2017-12-01T08:02:29.167Z,14.33
2017-12-01T08:05:01.435Z,14.00
2017-12-01T08:07:32.403Z,13.33
2017-12-01T08:10:03.666Z,12.33
2017-12-01T08:12:34.241Z,12.67
2017-12-01T08:15:07.287Z,13.67
2017-12-01T08:17:40.343Z,11.00
2017-12-01T08:20:19.743Z,13.67
2017-12-01T08:22:55.556Z,12.33
2017-12-01T08:25:27.983Z,16.33
2017-12-01T08:28:00.459Z,13.33
2017-12-01T08:30:32.650Z,13.67
2017-12-01T08:33:05.403Z,10.00
2017-12-01T08:35:37.789Z,10.00
2017-12-01T08:38:10.144Z,10.00
2017-12-01T08:40:42.498Z,10.67
2017-12-01T08:43:14.042Z,10.33
2017-12-01T08:45:46.390Z,8.33
2017-12-01T08:48:17.784Z,9.00
2017-12-01T08:50:49.292Z,10.00
2017-12-01T08:53:20.747Z,10.00
2017-12-01T08:55:52.214Z,7.33
2017-12-01T08:58:23.961Z,9.00
2017-12-01T09:00:55.613Z,8.33
2017-12-01T09:03:27.113Z,7.33
2017-12-01T09:05:58.458Z,6.67
2017-12-01T09:08:30.296Z,6.00
2017-12-01T09:11:04.253Z,9.00
2017-12-01T09:13:37.163Z,7.33
2017-12-01T09:16:12.212Z,8.20
2017-12-01T09:18:44.771Z,9.00
2017-12-01T09:21:16.231Z,7.00
2017-12-01T09:23:47.638Z,8.00
2017-12-01T09:26:20.102Z,7.40
2017-12-01T09:28:52.635Z,6.80
2017-12-01T09:31:24.278Z,6.00
2017-12-01T09:33:56.174Z,7.00
2017-12-01T09:36:29.601Z,8.00
2017-12-01T09:39:02.552Z,6.67
2017-12-01T09:41:35.467Z,7.40
2017-12-01T09:44:07.455Z,7.00
2017-12-01T09:46:38.990Z,7.00
2017-12-01T09:49:10.574Z,7.00
2017-12-01T09:51:42.860Z,9.67
2017-12-01T09:54:14.353Z,8.33
2017-12-01T09:56:45.933Z,7.00
2017-12-01T09:59:17.328Z,7.67
2017-12-01T10:01:48.745Z,8.33
2017-12-01T10:04:20.185Z,9.33
2017-12-01T10:06:51.656Z,9.00
2017-12-01T10:09:23.366Z,9.00
2017-12-01T10:11:54.886Z,9.00
2017-12-01T10:14:26.250Z,9.33
2017-12-01T10:16:57.746Z,9.00
2017-12-01T10:19:29.228Z,9.00
2017-12-01T10:22:00.638Z,10.33
2017-12-01T10:24:32.377Z,9.00
2017-12-01T10:27:05.297Z,6.75
2017-12-01T10:29:36.945Z,9.67
2017-12-01T10:32:08.351Z,9.00
2017-12-01T10:37:06.948Z,10.00
2017-12-01T10:39:38.884Z,10.00
2017-12-01T10:42:13.056Z,9.00
2017-12-01T10:44:44.975Z,9.00
2017-12-01T10:47:16.708Z,9.00
2017-12-01T10:49:48.881Z,8.33
2017-12-01T10:52:20.731Z,9.00
2017-12-01T10:54:52.481Z,7.67
2017-12-01T10:57:24.580Z,9.67
2017-12-01T10:59:56.371Z,10.33
2017-12-01T11:02:27.996Z,9.00
2017-12-01T11:04:59.870Z,9.67
2017-12-01T11:07:31.663Z,7.33
2017-12-01T11:10:03.387Z,9.00
2017-12-01T11:12:35.998Z,8.00
2017-12-01T11:15:08.514Z,9.50
2017-12-01T11:17:40.305Z,7.67
2017-12-01T11:20:13.271Z,9.00
2017-12-01T11:22:46.045Z,9.00
2017-12-01T11:25:17.965Z,7.00
2017-12-01T11:27:49.933Z,7.00
2017-12-01T11:30:21.775Z,6.33
2017-12-01T11:32:53.631Z,7.00
2017-12-01T11:35:25.489Z,7.33
2017-12-01T11:37:57.424Z,7.00
2017-12-01T11:40:29.368Z,7.33
2017-12-01T11:43:01.164Z,7.00
2017-12-01T11:45:33.968Z,6.80
2017-12-01T11:48:06.826Z,7.00
2017-12-01T11:50:39.528Z,8.50
2017-12-01T11:55:48.653Z,8.00
2017-12-01T11:58:21.322Z,7.00
2017-12-01T12:00:54.244Z,9.00
2017-12-01T12:03:25.814Z,7.67
2017-12-01T12:05:57.628Z,9.00
2017-12-01T12:08:29.426Z,8.33
2017-12-01T12:11:01.549Z,9.33
2017-12-01T12:13:34.163Z,8.00
2017-12-01T12:16:06.240Z,7.67
2017-12-01T12:18:37.773Z,6.33
2017-12-01T12:21:09.546Z,10.00
2017-12-01T12:23:41.257Z,7.00
2017-12-01T12:26:16.198Z,8.86
2017-12-01T12:28:49.228Z,7.80
2017-12-01T12:31:20.749Z,7.00
2017-12-01T12:33:53.203Z,8.33
2017-12-01T12:36:25.922Z,6.20
2017-12-01T12:38:58.688Z,8.25
2017-12-01T12:41:30.363Z,7.00
2017-12-01T12:44:02.827Z,8.33
2017-12-01T12:46:35.863Z,7.00
2017-12-01T12:49:07.810Z,6.67
2017-12-01T12:51:39.723Z,7.67
2017-12-01T12:54:11.789Z,7.00
2017-12-01T12:56:44.526Z,7.25
2017-12-01T12:59:17.249Z,7.00
2017-12-01T13:01:50.270Z,7.60
2017-12-01T13:04:22.225Z,6.00
2017-12-01T13:06:55.023Z,7.00
2017-12-01T13:09:27.975Z,7.00
2017-12-01T13:12:01.718Z,6.00
2017-12-01T13:14:33.398Z,7.00
2017-12-01T13:17:06.168Z,6.80
2017-12-01T13:19:37.953Z,8.33
2017-12-01T13:22:10.137Z,7.00
2017-12-01T13:24:43.158Z,6.40
2017-12-01T13:27:14.957Z,6.67
2017-12-01T13:29:46.979Z,9.67
2017-12-01T13:32:20.015Z,7.75
2017-12-01T13:34:51.729Z,8.33
2017-12-01T13:37:23.792Z,8.00
2017-12-01T13:39:55.546Z,8.33
2017-12-01T13:42:27.349Z,8.33
2017-12-01T13:45:00.084Z,7.50
2017-12-01T13:47:32.885Z,6.00
2017-12-01T13:50:07.732Z,7.00
2017-12-01T13:52:40.510Z,8.25
2017-12-01T13:55:12.286Z,6.67
2017-12-01T13:57:44.294Z,10.00
2017-12-01T14:00:19.251Z,6.67
2017-12-01T14:02:51.873Z,8.00
2017-12-01T14:05:23.682Z,8.33
2017-12-01T14:07:55.472Z,7.00
2017-12-01T14:10:28.227Z,8.00
2017-12-01T14:12:59.859Z,8.33
2017-12-01T14:15:31.755Z,8.67
2017-12-01T14:18:03.535Z,8.33
2017-12-01T14:20:35.580Z,8.33
2017-12-01T14:23:08.207Z,7.00
2017-12-01T14:25:40.114Z,9.00
2017-12-01T14:28:13.037Z,8.25
2017-12-01T14:30:44.654Z,9.00
2017-12-01T14:33:16.809Z,8.33
2017-12-01T14:35:49.554Z,7.75
2017-12-01T14:38:21.119Z,6.67
2017-12-01T14:40:53.041Z,7.00
2017-12-01T14:43:25.864Z,7.67
2017-12-01T14:45:58.874Z,7.40
2017-12-01T14:48:30.663Z,6.00
2017-12-01T14:51:02.330Z,6.67
2017-12-01T14:53:34.184Z,7.00
2017-12-01T14:56:06.359Z,8.33
2017-12-01T14:58:38.977Z,8.40
2017-12-01T15:01:11.354Z,7.00
2017-12-01T15:03:43.442Z,7.00
2017-12-01T15:06:15.384Z,6.33
2017-12-01T15:08:47.363Z,7.00
2017-12-01T15:11:22.138Z,6.43
2017-12-01T15:13:54.925Z,5.80
2017-12-01T15:16:27.962Z,6.40
2017-12-01T15:19:00.577Z,5.00
2017-12-01T15:21:32.659Z,6.67
2017-12-01T15:24:04.707Z,7.00
2017-12-01T15:26:36.636Z,6.67
2017-12-01T15:29:10.615Z,5.00
2017-12-01T15:31:42.658Z,5.00
2017-12-01T15:34:16.990Z,6.14
2017-12-01T15:36:49.988Z,6.00
2017-12-01T15:39:22.158Z,5.67
2017-12-01T15:41:56.980Z,6.00
2017-12-01T15:44:31.306Z,5.71
2017-12-01T15:47:04.883Z,6.00
2017-12-01T15:49:39.738Z,5.86
2017-12-01T15:52:13.431Z,6.00
2017-12-01T15:54:47.713Z,6.43
2017-12-01T15:57:21.958Z,5.86
2017-12-01T15:59:54.756Z,6.00
2017-12-01T16:02:27.058Z,6.67
2017-12-01T16:05:01.457Z,6.00
2017-12-01T16:07:33.980Z,6.40
2017-12-01T16:10:06.689Z,7.00
2017-12-01T16:12:41.303Z,7.00
2017-12-01T16:15:14.464Z,5.33
2017-12-01T16:17:47.271Z,6.00
2017-12-01T16:20:21.752Z,6.43
2017-12-01T16:22:54.796Z,6.20
2017-12-01T16:25:29.347Z,6.14
2017-12-01T16:28:03.830Z,6.43
2017-12-01T16:30:37.349Z,6.00
2017-12-01T16:33:10.204Z,6.00
2017-12-01T16:35:44.507Z,6.00
2017-12-01T16:38:17.306Z,6.20
2017-12-01T16:40:49.925Z,4.20
2017-12-01T16:43:24.299Z,5.71
2017-12-01T16:45:57.040Z,6.00
2017-12-01T16:48:29.771Z,6.00
2017-12-01T16:51:04.152Z,5.14
2017-12-01T16:53:37.757Z,5.00
2017-12-01T16:56:10.775Z,5.60
2017-12-01T16:58:42.842Z,5.67
2017-12-01T17:01:15.462Z,6.00
2017-12-01T17:03:47.489Z,6.00
2017-12-01T17:06:21.634Z,6.40
2017-12-01T17:08:54.630Z,6.00
2017-12-01T17:11:27.385Z,5.00
2017-12-01T17:14:01.620Z,5.67
2017-12-01T17:16:34.161Z,5.60
2017-12-01T17:19:07.383Z,5.60
2017-12-01T17:21:41.011Z,5.33
2017-12-01T17:24:15.366Z,5.14
2017-12-01T17:26:48.935Z,5.00
2017-12-01T17:29:22.501Z,5.17
2017-12-01T17:31:56.244Z,4.67
2017-12-01T17:34:29.341Z,4.20
2017-12-01T17:37:03.292Z,5.00
2017-12-01T17:39:36.863Z,3.00
2017-12-01T17:42:11.109Z,4.14
2017-12-01T17:44:45.481Z,5.14
2017-12-01T17:47:19.621Z,4.71
2017-12-01T17:49:53.916Z,5.00
2017-12-01T17:52:28.303Z,5.71
2017-12-01T17:55:01.908Z,6.00
2017-12-01T17:57:36.352Z,6.00
2017-12-01T18:00:10.022Z,5.00
2017-12-01T18:02:45.814Z,5.71
2017-12-01T18:05:20.490Z,5.71
2017-12-01T18:07:54.580Z,4.33
2017-12-01T18:10:27.333Z,8.25
2017-12-01T18:12:59.137Z,11.00
2017-12-01T18:15:30.508Z,10.33
2017-12-01T18:18:02.241Z,8.33
2017-12-01T18:20:34.416Z,7.00
2017-12-01T18:23:06.851Z,6.00
2017-12-01T18:25:39.678Z,6.20
2017-12-01T18:28:11.844Z,6.00
2017-12-01T18:30:43.738Z,5.00
2017-12-01T18:33:16.537Z,6.00
2017-12-01T18:35:49.779Z,6.80
2017-12-01T18:38:22.415Z,5.40
2017-12-01T18:40:54.466Z,6.33
2017-12-01T18:43:26.244Z,5.33
2017-12-01T18:46:01.450Z,5.86
2017-12-01T18:48:33.323Z,7.00
2017-12-01T18:51:05.181Z,6.00
2017-12-01T18:53:39.092Z,6.00
2017-12-01T18:56:11.350Z,6.00
2017-12-01T18:58:43.617Z,7.00
2017-12-01T19:01:16.400Z,7.40
2017-12-01T19:03:48.357Z,7.67
2017-12-01T19:06:20.990Z,9.00
2017-12-01T19:08:53.986Z,8.00
2017-12-01T19:11:26.635Z,7.00
2017-12-01T19:13:59.438Z,7.00
2017-12-01T19:16:32.087Z,7.80
2017-12-01T19:19:04.189Z,7.67
2017-12-01T19:21:37.200Z,8.00
2017-12-01T19:24:09.990Z,8.50
2017-12-01T19:26:41.746Z,7.67
2017-12-01T19:29:14.020Z,9.00
2017-12-01T19:31:45.744Z,8.33
2017-12-01T19:34:17.541Z,7.00
2017-12-01T19:36:49.288Z,10.00
2017-12-01T19:39:22.115Z,8.20
2017-12-01T19:41:53.754Z,7.00
2017-12-01T19:44:26.727Z,8.33
2017-12-01T19:46:59.488Z,7.00
2017-12-01T19:49:32.236Z,6.00
2017-12-01T19:52:05.059Z,7.00
2017-12-01T19:54:38.058Z,6.00
2017-12-01T19:57:12.255Z,6.43
2017-12-01T19:59:46.844Z,6.71
2017-12-01T20:02:18.843Z,5.33
2017-12-01T20:04:53.817Z,6.00
2017-12-01T20:07:26.634Z,6.60
2017-12-01T20:09:59.411Z,5.60
2017-12-01T20:12:33.750Z,5.67
2017-12-01T20:15:06.463Z,6.00
2017-12-01T20:17:39.300Z,6.00
2017-12-01T20:20:13.659Z,5.57
2017-12-01T20:22:47.339Z,5.00
2017-12-01T20:25:20.708Z,6.00
2017-12-01T20:27:54.368Z,5.50
2017-12-01T20:30:29.245Z,6.57
2017-12-01T20:33:02.963Z,5.50
2017-12-01T20:35:35.721Z,5.40
2017-12-01T20:38:08.583Z,6.00
2017-12-01T20:40:40.415Z,6.33
2017-12-01T20:43:14.758Z,6.14
2017-12-01T20:45:46.926Z,6.00
2017-12-01T20:48:18.854Z,5.00
2017-12-01T20:50:50.961Z,6.33
2017-12-01T20:53:24.730Z,6.00
2017-12-01T20:55:58.864Z,5.83
2017-12-01T20:58:33.336Z,6.57
2017-12-01T21:01:06.378Z,6.00
2017-12-01T21:03:38.217Z,6.33
2017-12-01T21:06:11.128Z,6.00
2017-12-01T21:08:43.867Z,6.00
2017-12-01T21:11:18.224Z,6.43
2017-12-01T21:13:51.339Z,6.60
2017-12-01T21:16:26.420Z,6.00
2017-12-01T21:18:59.072Z,7.00
2017-12-01T21:21:30.801Z,6.00
2017-12-01T21:24:03.952Z,6.40
2017-12-01T21:26:36.738Z,7.00
2017-12-01T21:29:08.780Z,5.67
2017-12-01T21:31:40.978Z,6.00
2017-12-01T21:34:14.132Z,6.25
2017-12-01T21:36:46.806Z,7.25
2017-12-01T21:39:18.708Z,6.00
2017-12-01T21:41:50.596Z,9.33
2017-12-01T21:44:22.437Z,8.00
2017-12-01T21:46:54.212Z,10.00
2017-12-01T21:49:27.048Z,9.25
2017-12-01T21:51:59.414Z,9.00
2017-12-01T21:54:32.063Z,9.00
2017-12-01T21:57:03.851Z,9.67
2017-12-01T21:59:35.716Z,10.00
2017-12-01T22:02:08.400Z,10.00
2017-12-01T22:04:40.302Z,10.00
2017-12-01T22:07:12.658Z,8.33
2017-12-01T22:09:44.530Z,11.00
2017-12-01T22:12:16.346Z,11.00
2017-12-01T22:14:48.057Z,10.00
2017-12-01T22:17:20.933Z,11.67
2017-12-01T22:19:52.863Z,10.00
2017-12-01T22:22:25.231Z,10.00
2017-12-01T22:24:57.085Z,9.67
2017-12-01T22:27:29.067Z,9.33
2017-12-01T22:30:00.997Z,9.67
2017-12-01T22:32:33.911Z,7.67
2017-12-01T22:35:06.148Z,10.00
2017-12-01T22:37:38.568Z,10.00
2017-12-01T22:40:10.321Z,9.00
2017-12-01T22:42:43.315Z,6.67
2017-12-01T22:45:16.339Z,8.00
2017-12-01T22:47:48.117Z,9.33
2017-12-01T22:50:21.167Z,8.60
2017-12-01T22:52:52.864Z,7.33
2017-12-01T22:55:25.958Z,7.00
2017-12-01T22:57:57.832Z,6.33
2017-12-01T23:00:29.934Z,8.33
2017-12-01T23:03:02.714Z,7.00
2017-12-01T23:05:35.239Z,6.75
2017-12-01T23:08:09.783Z,8.40
2017-12-01T23:10:42.518Z,7.00
2017-12-01T23:13:15.149Z,8.50
2017-12-01T23:15:46.981Z,7.00
2017-12-01T23:18:18.739Z,8.33
2017-12-01T23:20:50.502Z,8.33
2017-12-01T23:23:23.312Z,8.50
2017-12-01T23:25:55.184Z,11.67
2017-12-01T23:28:26.896Z,11.00
2017-12-01T23:30:59.511Z,12.00
2017-12-01T23:33:31.326Z,11.33
2017-12-01T23:36:03.447Z,11.33
2017-12-01T23:38:35.203Z,11.00
2017-12-01T23:41:06.082Z,10.00
2017-12-01T23:43:37.871Z,10.00
2017-12-01T23:46:10.558Z,10.33
2017-12-01T23:48:42.370Z,9.67
2017-12-01T23:51:14.556Z,10.33
2017-12-01T23:53:47.511Z,10.00
2017-12-01T23:56:19.232Z,10.00
2017-12-01T23:58:51.020Z,11.00
